createdAt,value
2023-03-02T00:01:24.861Z,77.60
2023-03-02T00:03:51.593Z,72.50
2023-03-02T00:06:19.118Z,84.70
2023-03-02T00:08:46.675Z,66.20
2023-03-02T00:11:15.398Z,81.60
2023-03-02T00:13:42.817Z,76.70
2023-03-02T00:16:09.412Z,69.10
2023-03-02T00:18:36.170Z,86.70
2023-03-02T00:21:02.709Z,88.20
2023-03-02T00:23:29.229Z,90.60
2023-03-02T00:25:55.763Z,58.80
2023-03-02T00:28:22.273Z,71.80
2023-03-02T00:30:48.843Z,53.00
2023-03-02T00:33:15.362Z,58.40
2023-03-02T00:35:42.009Z,60.50
2023-03-02T00:38:08.849Z,90.00
2023-03-02T00:40:36.028Z,61.30
2023-03-02T00:43:02.612Z,74.40
2023-03-02T00:45:29.183Z,71.00
2023-03-02T00:47:55.730Z,63.90
2023-03-02T00:50:22.432Z,55.80
2023-03-02T00:52:48.915Z,58.90
2023-03-02T00:55:15.563Z,60.70
2023-03-02T00:57:42.078Z,57.80
2023-03-02T01:00:08.999Z,81.40
2023-03-02T01:02:35.615Z,59.70
2023-03-02T01:05:02.171Z,56.70
2023-03-02T01:07:28.734Z,75.20
2023-03-02T01:09:55.245Z,71.40
2023-03-02T01:12:21.822Z,69.30
2023-03-02T01:14:50.703Z,69.00
2023-03-02T01:17:17.286Z,65.90
2023-03-02T01:19:43.835Z,64.10
2023-03-02T01:22:10.415Z,56.90
2023-03-02T01:24:36.965Z,68.80
2023-03-02T01:27:03.539Z,54.90
2023-03-02T01:29:30.118Z,55.70
2023-03-02T01:31:56.893Z,74.30
2023-03-02T01:34:23.582Z,47.60
2023-03-02T01:36:50.084Z,49.70
2023-03-02T01:39:16.651Z,50.00
2023-03-02T01:41:44.079Z,48.40
2023-03-02T01:44:29.307Z,69.20
2023-03-02T01:46:55.815Z,45.90
2023-03-02T01:49:22.337Z,47.10
2023-03-02T01:51:48.881Z,44.20
2023-03-02T01:54:23.166Z,57.10
2023-03-02T01:56:50.939Z,57.50
2023-03-02T01:59:19.490Z,61.60
2023-03-02T02:01:50.362Z,75.70
2023-03-02T02:04:16.958Z,48.00
2023-03-02T02:06:47.681Z,45.60
2023-03-02T02:09:15.482Z,50.70
2023-03-02T02:11:42.326Z,67.80
2023-03-02T02:14:09.073Z,54.40
2023-03-02T02:16:36.741Z,52.80
2023-03-02T02:19:08.355Z,59.00
2023-03-02T02:21:34.917Z,55.30
2023-03-02T02:24:09.832Z,45.30
2023-03-02T02:26:39.978Z,54.40
2023-03-02T02:29:12.240Z,43.10
2023-03-02T02:31:38.818Z,40.40
2023-03-02T02:34:10.011Z,53.10
2023-03-02T02:36:39.855Z,57.60
2023-03-02T02:39:08.170Z,50.50
2023-03-02T02:41:38.184Z,50.80
2023-03-02T02:44:04.989Z,52.20
2023-03-02T02:46:32.618Z,54.70
2023-03-02T02:49:00.427Z,51.80
2023-03-02T02:51:28.708Z,84.80
2023-03-02T02:54:02.677Z,63.30
2023-03-02T02:56:33.767Z,48.50
2023-03-02T02:59:20.789Z,64.50
2023-03-02T03:01:48.111Z,49.50
2023-03-02T03:04:18.005Z,48.70
2023-03-02T03:06:52.629Z,53.10
2023-03-02T03:09:19.439Z,47.30
2023-03-02T03:11:52.980Z,64.80
2023-03-02T03:14:26.623Z,47.40
2023-03-02T03:16:53.662Z,54.80
2023-03-02T03:19:20.230Z,49.80
2023-03-02T03:21:48.452Z,56.00
2023-03-02T03:24:14.956Z,44.60
2023-03-02T03:26:41.468Z,56.70
2023-03-02T03:29:08.057Z,60.60
2023-03-02T03:31:35.237Z,60.70
2023-03-02T03:34:02.118Z,74.30
2023-03-02T03:36:29.298Z,41.80
2023-03-02T03:38:56.169Z,65.00
2023-03-02T03:41:22.906Z,52.70
2023-03-02T03:43:49.472Z,61.40
2023-03-02T03:46:16.339Z,56.60
2023-03-02T03:48:43.101Z,50.70
2023-03-02T03:51:09.752Z,43.40
2023-03-02T03:53:36.743Z,36.70
2023-03-02T03:56:03.878Z,43.30
2023-03-02T03:58:31.466Z,42.20
2023-03-02T04:00:58.705Z,58.80
2023-03-02T04:03:25.624Z,48.70
2023-03-02T04:05:52.177Z,62.20
2023-03-02T04:08:19.009Z,60.60
2023-03-02T04:10:46.072Z,64.60
2023-03-02T04:13:12.624Z,43.10
2023-03-02T04:15:39.471Z,44.30
2023-03-02T04:18:06.020Z,48.30
2023-03-02T04:20:32.633Z,40.80
2023-03-02T04:22:59.319Z,38.90
2023-03-02T04:25:26.483Z,44.30
2023-03-02T04:27:53.542Z,55.20
2023-03-02T04:30:22.076Z,60.20
2023-03-02T04:32:48.639Z,57.50
2023-03-02T04:35:15.644Z,44.70
2023-03-02T04:37:42.736Z,57.70
2023-03-02T04:40:10.014Z,50.40
2023-03-02T04:42:36.540Z,53.20
2023-03-02T04:45:03.256Z,70.40
2023-03-02T04:47:29.764Z,77.00
2023-03-02T04:49:57.354Z,55.70
2023-03-02T04:52:25.043Z,51.20
2023-03-02T04:54:52.023Z,53.80
2023-03-02T04:57:18.697Z,50.40
2023-03-02T04:59:45.190Z,51.60
2023-03-02T05:02:11.905Z,53.90
2023-03-02T05:04:40.614Z,66.60
2023-03-02T05:07:07.313Z,74.20
2023-03-02T05:09:33.958Z,84.00
2023-03-02T05:12:00.612Z,59.80
2023-03-02T05:14:27.321Z,60.30
2023-03-02T05:16:53.936Z,57.20
2023-03-02T05:19:20.544Z,62.50
2023-03-02T05:21:47.152Z,54.10
2023-03-02T05:24:14.058Z,67.10
2023-03-02T05:26:40.628Z,64.70
2023-03-02T05:29:07.611Z,47.50
2023-03-02T05:31:38.821Z,59.10
2023-03-02T05:34:06.320Z,42.60
2023-03-02T05:36:33.672Z,61.00
2023-03-02T05:39:00.678Z,44.90
2023-03-02T05:41:27.213Z,46.90
2023-03-02T05:43:53.851Z,39.80
2023-03-02T05:46:21.993Z,52.10
2023-03-02T05:48:48.772Z,49.40
2023-03-02T05:51:15.662Z,71.80
2023-03-02T05:53:42.332Z,45.00
2023-03-02T05:56:08.921Z,59.60
2023-03-02T05:58:35.495Z,39.70
2023-03-02T06:01:02.009Z,49.20
2023-03-02T06:03:28.948Z,42.40
2023-03-02T06:05:55.464Z,41.30
2023-03-02T06:08:22.105Z,42.00
2023-03-02T06:10:50.636Z,70.90
2023-03-02T06:13:17.412Z,53.10
2023-03-02T06:15:44.354Z,48.50
2023-03-02T06:18:12.742Z,51.10
2023-03-02T06:20:40.348Z,59.00
2023-03-02T06:23:06.891Z,44.60
2023-03-02T06:25:33.552Z,41.20
2023-03-02T06:28:00.075Z,38.20
2023-03-02T06:30:27.824Z,57.90
2023-03-02T06:32:54.406Z,52.30
2023-03-02T06:35:21.209Z,46.40
2023-03-02T06:37:47.767Z,52.20
2023-03-02T06:40:14.416Z,51.70
2023-03-02T06:42:41.897Z,43.40
2023-03-02T06:45:09.600Z,67.10
2023-03-02T06:47:36.346Z,73.10
2023-03-02T06:50:03.429Z,61.90
2023-03-02T06:52:30.088Z,76.10
2023-03-02T06:54:56.595Z,55.30
2023-03-02T06:57:23.598Z,42.10
2023-03-02T06:59:50.189Z,44.10
2023-03-02T07:02:16.756Z,50.90
2023-03-02T07:04:43.249Z,43.30
2023-03-02T07:07:09.793Z,60.00
2023-03-02T07:09:36.320Z,50.10
2023-03-02T07:12:02.901Z,46.40
2023-03-02T07:14:29.475Z,63.50
2023-03-02T07:16:57.492Z,59.70
2023-03-02T07:19:24.255Z,61.00
2023-03-02T07:21:50.833Z,62.00
2023-03-02T07:24:17.369Z,57.00
2023-03-02T07:26:43.936Z,60.90
2023-03-02T07:29:10.479Z,61.40
2023-03-02T07:31:37.000Z,63.80
2023-03-02T07:34:03.573Z,62.40
2023-03-02T07:36:30.190Z,64.70
2023-03-02T07:38:57.456Z,64.20
2023-03-02T07:41:24.038Z,64.50
2023-03-02T07:43:50.547Z,79.20
2023-03-02T07:46:17.205Z,66.60
2023-03-02T07:48:43.766Z,74.20
2023-03-02T07:51:10.331Z,78.20
2023-03-02T07:53:36.891Z,73.50
2023-03-02T07:56:08.050Z,86.80
2023-03-02T07:58:35.377Z,75.90
2023-03-02T08:01:02.043Z,57.80
2023-03-02T08:03:28.580Z,56.10
2023-03-02T08:05:55.133Z,66.40
2023-03-02T08:08:21.825Z,69.10
2023-03-02T08:10:48.376Z,69.50
2023-03-02T08:13:14.945Z,57.40
2023-03-02T08:15:41.433Z,66.00
2023-03-02T08:18:07.941Z,68.80
2023-03-02T08:20:34.506Z,75.90
2023-03-02T08:23:01.032Z,73.40
2023-03-02T08:25:27.555Z,73.30
2023-03-02T08:27:54.187Z,95.60
2023-03-02T08:30:20.719Z,77.90
2023-03-02T08:32:47.335Z,82.70
2023-03-02T08:35:13.931Z,87.90
2023-03-02T08:37:40.447Z,88.90
2023-03-02T08:40:07.328Z,98.40
2023-03-02T08:42:33.826Z,94.20
2023-03-02T08:45:00.430Z,89.80
2023-03-02T08:47:28.220Z,91.60
2023-03-02T08:49:54.719Z,82.00
2023-03-02T08:52:21.241Z,84.00
2023-03-02T08:54:47.795Z,89.40
2023-03-02T08:57:14.371Z,50.30
2023-03-02T08:59:40.866Z,70.30
2023-03-02T09:02:07.354Z,61.50
2023-03-02T09:04:35.006Z,91.80
2023-03-02T09:07:01.649Z,50.50
2023-03-02T09:09:28.173Z,56.90
2023-03-02T09:11:54.762Z,58.70
2023-03-02T09:14:21.424Z,67.50
2023-03-02T09:16:48.024Z,77.20
2023-03-02T09:19:14.705Z,71.10
2023-03-02T09:21:41.227Z,79.40
2023-03-02T09:24:07.924Z,82.80
2023-03-02T09:26:34.931Z,87.20
2023-03-02T09:29:01.551Z,73.50
2023-03-02T09:31:30.218Z,77.60
2023-03-02T09:33:57.159Z,68.20
2023-03-02T09:36:25.130Z,77.30
2023-03-02T09:38:51.861Z,72.60
2023-03-02T09:41:28.844Z,65.50
2023-03-02T09:44:01.835Z,72.90
2023-03-02T09:46:40.678Z,98.40
2023-03-02T09:49:15.355Z,90.70
2023-03-02T09:51:45.372Z,91.60
2023-03-02T09:54:18.447Z,98.50
2023-03-02T09:56:50.633Z,99.90
2023-03-02T09:59:24.016Z,92.10
2023-03-02T10:01:54.756Z,96.70
2023-03-02T10:04:23.866Z,96.90
2023-03-02T10:07:16.793Z,93.90
2023-03-02T10:09:43.638Z,98.20
2023-03-02T10:12:20.401Z,99.90
2023-03-02T10:14:56.660Z,94.30
2023-03-02T10:17:31.863Z,93.60
2023-03-02T10:20:02.945Z,98.20
2023-03-02T10:22:38.299Z,95.30
2023-03-02T10:25:20.177Z,96.60
2023-03-02T10:27:50.780Z,94.90
2023-03-02T10:30:17.309Z,99.90
2023-03-02T10:32:46.460Z,99.90
2023-03-02T10:35:18.267Z,99.90
2023-03-02T10:37:44.851Z,83.50
2023-03-02T10:40:30.882Z,98.80
2023-03-02T10:42:57.703Z,97.50
2023-03-02T10:45:27.985Z,98.10
2023-03-02T10:48:01.723Z,93.60
2023-03-02T10:50:30.554Z,92.40
2023-03-02T10:53:00.731Z,92.60
2023-03-02T10:55:28.745Z,93.20
2023-03-02T10:58:06.016Z,99.90
2023-03-02T11:00:34.367Z,97.50
2023-03-02T11:03:02.589Z,96.70
2023-03-02T11:05:31.294Z,99.90
2023-03-02T11:07:59.192Z,97.70
2023-03-02T11:10:50.639Z,96.70
2023-03-02T11:13:24.318Z,97.70
2023-03-02T11:15:52.325Z,91.50
2023-03-02T11:18:24.505Z,96.70
2023-03-02T11:20:52.689Z,98.80
2023-03-02T11:23:30.340Z,99.90
2023-03-02T11:25:58.564Z,99.90
2023-03-02T11:28:43.764Z,99.90
2023-03-02T11:31:15.546Z,99.90
2023-03-02T11:33:48.504Z,99.90
2023-03-02T11:36:20.619Z,99.90
2023-03-02T11:38:48.717Z,94.80
2023-03-02T11:41:24.566Z,99.60
2023-03-02T11:43:52.516Z,99.90
2023-03-02T11:46:24.748Z,96.20
2023-03-02T11:48:54.534Z,99.90
2023-03-02T11:51:23.247Z,99.90
2023-03-02T11:56:51.382Z,99.90
2023-03-02T11:59:19.498Z,99.90
2023-03-02T12:01:50.235Z,99.90
2023-03-02T12:04:29.242Z,99.90
2023-03-02T12:06:56.220Z,97.90
2023-03-02T12:09:22.740Z,99.90
2023-03-02T12:11:57.113Z,99.90
2023-03-02T12:14:29.889Z,99.90
2023-03-02T12:17:18.037Z,99.90
2023-03-02T12:19:46.005Z,98.60
2023-03-02T12:22:14.654Z,99.90
2023-03-02T12:24:43.654Z,99.90
2023-03-02T12:27:11.660Z,99.90
2023-03-02T12:29:45.661Z,99.90
2023-03-02T12:32:25.676Z,99.90
2023-03-02T12:35:07.640Z,99.90
2023-03-02T12:37:44.771Z,99.90
2023-03-02T12:40:17.354Z,99.90
2023-03-02T12:42:50.174Z,99.90
2023-03-02T12:45:35.955Z,99.90
2023-03-02T12:48:04.912Z,99.90
2023-03-02T12:50:36.406Z,99.90
2023-03-02T12:53:04.474Z,99.90
2023-03-02T12:55:31.055Z,99.00
2023-03-02T12:57:59.157Z,99.90
2023-03-02T13:00:27.937Z,99.90
2023-03-02T13:02:55.674Z,99.90
2023-03-02T13:05:26.751Z,99.90
2023-03-02T13:07:58.876Z,99.90
2023-03-02T13:10:36.875Z,99.90
2023-03-02T13:13:26.965Z,99.90
2023-03-02T13:15:55.905Z,99.90
2023-03-02T13:18:27.840Z,99.90
2023-03-02T13:20:55.394Z,99.90
2023-03-02T13:23:21.942Z,99.90
2023-03-02T13:25:53.032Z,99.90
2023-03-02T13:28:34.392Z,99.90
2023-03-02T13:31:03.739Z,99.90
2023-03-02T13:33:31.439Z,99.90
2023-03-02T13:35:58.436Z,99.90
2023-03-02T13:38:26.736Z,99.90
2023-03-02T13:40:54.449Z,99.90
2023-03-02T13:43:20.977Z,99.90
2023-03-02T13:45:51.368Z,99.90
2023-03-02T13:48:18.131Z,99.90
2023-03-02T13:50:52.565Z,99.90
2023-03-02T13:53:19.258Z,99.90
2023-03-02T13:55:45.814Z,99.90
2023-03-02T13:58:17.408Z,99.90
2023-03-02T14:00:44.356Z,99.90
2023-03-02T14:03:20.774Z,99.90
2023-03-02T14:05:47.390Z,99.90
2023-03-02T14:08:15.058Z,99.90
2023-03-02T14:10:42.454Z,99.90
2023-03-02T14:13:21.516Z,99.90
2023-03-02T14:15:50.384Z,99.90
2023-03-02T14:18:35.550Z,99.90
2023-03-02T14:21:02.127Z,99.90
2023-03-02T14:23:28.796Z,99.90
2023-03-02T14:25:56.200Z,99.90
2023-03-02T14:28:26.106Z,99.90
2023-03-02T14:30:54.214Z,99.90
2023-03-02T14:33:21.267Z,99.90
2023-03-02T14:35:48.463Z,99.90
2023-03-02T14:38:15.140Z,99.90
2023-03-02T14:40:42.046Z,99.90
2023-03-02T14:43:09.689Z,99.90
2023-03-02T14:45:36.214Z,99.90
2023-03-02T14:50:53.375Z,99.90
2023-03-02T14:53:22.704Z,99.90
2023-03-02T14:55:49.290Z,99.90
2023-03-02T14:58:20.188Z,99.90
2023-03-02T15:00:47.328Z,99.90
2023-03-02T15:03:20.274Z,99.90
2023-03-02T15:06:00.344Z,99.90
2023-03-02T15:08:27.361Z,99.90
2023-03-02T15:10:53.900Z,99.90
2023-03-02T15:13:20.477Z,99.90
2023-03-02T15:15:47.233Z,99.90
2023-03-02T15:18:16.518Z,99.90
2023-03-02T15:20:43.094Z,99.90
2023-03-02T15:23:09.595Z,99.90
2023-03-02T15:25:36.225Z,99.90
2023-03-02T15:28:02.784Z,99.90
2023-03-02T15:30:30.572Z,99.90
2023-03-02T15:32:59.306Z,99.90
2023-03-02T15:35:27.005Z,99.90
2023-03-02T15:37:53.996Z,99.90
2023-03-02T15:40:20.551Z,99.90
2023-03-02T15:42:47.896Z,99.90
2023-03-02T15:45:14.564Z,99.90
2023-03-02T15:47:41.087Z,99.90
2023-03-02T15:50:07.930Z,99.90
2023-03-02T15:52:34.470Z,99.90
2023-03-02T15:55:00.976Z,99.90
2023-03-02T15:57:27.487Z,99.90
2023-03-02T15:59:53.988Z,99.90
2023-03-02T16:02:22.911Z,99.90
2023-03-02T16:04:49.436Z,99.90
2023-03-02T16:07:16.013Z,99.90
2023-03-02T16:09:45.184Z,99.90
2023-03-02T16:12:11.811Z,99.90
2023-03-02T16:14:38.383Z,99.90
2023-03-02T16:17:05.418Z,99.90
2023-03-02T16:19:32.312Z,99.90
2023-03-02T16:22:00.375Z,99.90
2023-03-02T16:24:26.922Z,99.90
2023-03-02T16:26:53.604Z,99.90
2023-03-02T16:29:20.462Z,99.90
2023-03-02T16:31:47.453Z,99.90
2023-03-02T16:34:14.607Z,99.90
2023-03-02T16:36:41.402Z,99.90
2023-03-02T16:39:08.892Z,99.90
2023-03-02T16:41:35.440Z,99.90
2023-03-02T16:44:02.124Z,99.90
2023-03-02T16:46:30.131Z,99.90
2023-03-02T16:48:57.271Z,99.90
2023-03-02T16:51:23.791Z,99.90
2023-03-02T16:53:50.611Z,99.90
2023-03-02T16:56:17.276Z,99.90
2023-03-02T16:58:43.818Z,99.90
2023-03-02T17:01:11.908Z,99.90
2023-03-02T17:03:38.985Z,99.90
2023-03-02T17:06:06.729Z,99.90
2023-03-02T17:08:33.392Z,99.90
2023-03-02T17:10:59.908Z,99.90
2023-03-02T17:13:26.847Z,99.90
2023-03-02T17:15:53.723Z,99.90
2023-03-02T17:18:20.410Z,99.90
2023-03-02T17:20:50.384Z,99.90
2023-03-02T17:23:17.050Z,96.70
2023-03-02T17:25:43.562Z,99.90
2023-03-02T17:28:12.452Z,99.80
2023-03-02T17:30:39.615Z,99.90
2023-03-02T17:33:06.121Z,92.80
2023-03-02T17:35:32.683Z,65.70
2023-03-02T17:37:59.344Z,62.00
2023-03-02T17:40:26.090Z,76.90
2023-03-02T17:42:55.407Z,85.30
2023-03-02T17:45:25.522Z,65.00
2023-03-02T17:47:53.052Z,65.10
2023-03-02T17:50:20.527Z,55.80
2023-03-02T17:52:47.209Z,53.20
2023-03-02T17:55:13.814Z,78.20
2023-03-02T17:57:40.452Z,64.50
2023-03-02T18:00:08.730Z,65.90
2023-03-02T18:02:35.283Z,64.50
2023-03-02T18:05:02.272Z,63.80
2023-03-02T18:07:28.813Z,65.40
2023-03-02T18:09:55.333Z,57.60
2023-03-02T18:12:22.692Z,71.50
2023-03-02T18:14:49.372Z,70.30
2023-03-02T18:17:15.993Z,66.90
2023-03-02T18:19:42.519Z,57.10
2023-03-02T18:22:10.052Z,52.90
2023-03-02T18:24:36.640Z,59.30
2023-03-02T18:27:03.164Z,67.90
2023-03-02T18:29:29.749Z,63.90
2023-03-02T18:31:56.273Z,54.30
2023-03-02T18:34:22.854Z,57.50
2023-03-02T18:36:49.528Z,58.70
2023-03-02T18:39:16.392Z,62.10
2023-03-02T18:41:43.091Z,60.60
2023-03-02T18:44:10.042Z,65.70
2023-03-02T18:49:08.068Z,67.10
2023-03-02T18:51:36.496Z,80.20
2023-03-02T18:54:03.084Z,93.40
2023-03-02T18:56:29.656Z,61.20
2023-03-02T18:58:56.399Z,68.00
2023-03-02T19:01:22.906Z,76.90
2023-03-02T19:03:50.060Z,66.10
2023-03-02T19:06:16.676Z,76.00
2023-03-02T19:08:43.410Z,93.10
2023-03-02T19:11:10.238Z,91.00
2023-03-02T19:13:36.759Z,93.10
2023-03-02T19:16:03.460Z,99.90
2023-03-02T19:18:30.903Z,96.80
2023-03-02T19:20:57.835Z,99.90
2023-03-02T19:23:24.814Z,39.30
2023-03-02T19:25:51.735Z,89.10
2023-03-02T19:28:18.402Z,47.80
2023-03-02T19:30:44.922Z,99.90
2023-03-02T19:33:11.480Z,91.50
2023-03-02T19:35:38.120Z,99.90
2023-03-02T19:38:05.524Z,99.90
2023-03-02T19:40:32.118Z,99.90
2023-03-02T19:42:58.743Z,96.40
2023-03-02T19:45:28.961Z,99.00
2023-03-02T19:47:57.706Z,99.90
2023-03-02T19:50:24.903Z,86.40
2023-03-02T19:52:52.373Z,94.20
2023-03-02T19:55:20.033Z,94.90
2023-03-02T19:57:51.270Z,99.90
2023-03-02T20:00:19.204Z,99.90
2023-03-02T20:02:47.213Z,83.20
2023-03-02T20:05:13.820Z,99.90
2023-03-02T20:07:41.862Z,99.90
2023-03-02T20:10:09.469Z,93.10
2023-03-02T20:12:36.769Z,86.90
2023-03-02T20:15:04.642Z,95.40
2023-03-02T20:17:31.216Z,79.00
2023-03-02T20:19:58.542Z,83.70
2023-03-02T20:22:25.950Z,97.40
2023-03-02T20:24:52.650Z,99.90
2023-03-02T20:27:19.215Z,99.90
2023-03-02T20:29:45.840Z,99.90
2023-03-02T20:32:13.210Z,99.90
2023-03-02T20:34:40.483Z,99.90
2023-03-02T20:37:07.096Z,99.90
2023-03-02T20:39:35.306Z,99.90
2023-03-02T20:42:02.477Z,99.90
2023-03-02T20:44:31.099Z,99.80
2023-03-02T20:46:58.903Z,94.60
2023-03-02T20:49:26.926Z,93.20
2023-03-02T20:51:54.785Z,93.40
2023-03-02T20:54:23.952Z,98.80
2023-03-02T20:56:51.120Z,99.90
2023-03-02T20:59:17.837Z,85.30
2023-03-02T21:01:44.418Z,81.50
2023-03-02T21:04:11.438Z,82.50
2023-03-02T21:06:38.090Z,73.70
2023-03-02T21:09:06.164Z,90.50
2023-03-02T21:11:33.640Z,95.60
2023-03-02T21:14:02.031Z,99.90
2023-03-02T21:16:30.433Z,92.90
2023-03-02T21:18:56.982Z,92.80
2023-03-02T21:21:35.701Z,91.70
2023-03-02T21:24:07.872Z,94.30
2023-03-02T21:26:35.011Z,93.10
2023-03-02T21:29:01.594Z,95.30
2023-03-02T21:31:28.139Z,97.50
2023-03-02T21:33:54.729Z,97.20
2023-03-02T21:36:27.254Z,99.90
2023-03-02T21:38:53.995Z,99.90
2023-03-02T21:41:20.867Z,94.50
2023-03-02T21:43:50.190Z,99.90
2023-03-02T21:46:19.736Z,99.90
2023-03-02T21:48:46.458Z,99.90
2023-03-02T21:51:13.522Z,99.90
2023-03-02T21:53:40.525Z,96.20
2023-03-02T21:56:07.319Z,98.50
2023-03-02T21:58:33.941Z,99.90
2023-03-02T22:01:00.685Z,97.40
2023-03-02T22:03:27.366Z,99.90
2023-03-02T22:05:55.727Z,93.20
2023-03-02T22:08:22.316Z,99.90
2023-03-02T22:10:50.222Z,99.90
2023-03-02T22:13:22.536Z,92.50
2023-03-02T22:15:50.087Z,95.80
2023-03-02T22:18:16.642Z,99.90
2023-03-02T22:20:44.480Z,94.40
2023-03-02T22:23:20.869Z,93.70
2023-03-02T22:25:48.952Z,91.30
2023-03-02T22:28:20.917Z,93.70
2023-03-02T22:30:53.716Z,96.90
2023-03-02T22:33:21.584Z,96.50
2023-03-02T22:35:49.407Z,99.90
2023-03-02T22:38:22.185Z,93.10
2023-03-02T22:40:48.704Z,99.90
2023-03-02T22:43:21.440Z,93.00
2023-03-02T22:45:47.962Z,92.30
2023-03-02T22:48:16.094Z,99.90
2023-03-02T22:50:43.808Z,99.90
2023-03-02T22:53:29.958Z,93.60
2023-03-02T22:55:57.966Z,96.70
2023-03-02T22:58:29.660Z,97.20
2023-03-02T23:00:57.252Z,99.90
2023-03-02T23:03:26.373Z,98.80
2023-03-02T23:05:53.893Z,99.90
2023-03-02T23:08:29.982Z,99.00
2023-03-02T23:10:57.979Z,98.70
2023-03-02T23:13:27.380Z,99.90
2023-03-02T23:15:54.569Z,94.10
2023-03-02T23:18:22.680Z,93.00
2023-03-02T23:20:49.808Z,93.10
2023-03-02T23:23:16.785Z,87.80
2023-03-02T23:25:43.309Z,95.50
2023-03-02T23:28:10.992Z,97.70
2023-03-02T23:30:37.513Z,99.90
2023-03-02T23:33:04.136Z,99.90
2023-03-02T23:35:31.037Z,99.90
2023-03-02T23:37:58.562Z,99.90
2023-03-02T23:40:25.384Z,99.90
2023-03-02T23:42:51.960Z,99.90
2023-03-02T23:45:18.590Z,99.90
2023-03-02T23:47:45.216Z,99.90
2023-03-02T23:50:12.409Z,99.90
2023-03-02T23:52:39.164Z,99.90
2023-03-02T23:55:06.531Z,99.90
2023-03-02T23:57:33.119Z,96.70
